Riverhurst, Canada
Current Conditions -  °F | °C
As of 3:21 PM on Monday 24 Nov 2014 (Local Time) from CYYN Reporting Station
Overcast Overcast  
Wind Chill: 19°   Ceiling: 1000
Heat Index: 30°   Visibility: 9mi
Dew Point: 27°   Wind: 15mph
Humidity: 86%   Direction: 290°WNW
Pressure: 29.95"   Gusts: 21mph
Location:  50.92°N, 106.85°W
Report Text: CYYN 242121Z AUTO 29013G18KT 9SM OVC010 M01/M03 A2995 RMK SLP185
Loading
Personal Weather Stations






























Interactive Weather Map New forecast layout! Learn more

10-Day Weather Forecast

Advertisements
Track Severe Weather on mobile